createdAt,value
2018-07-12T00:00:32.572Z,18.43
2018-07-12T00:03:00.337Z,18.41
2018-07-12T00:05:28.182Z,18.41
2018-07-12T00:07:55.947Z,18.43
2018-07-12T00:10:23.730Z,18.46
2018-07-12T00:12:51.470Z,18.47
2018-07-12T00:15:19.205Z,18.38
2018-07-12T00:17:46.934Z,18.41
2018-07-12T00:20:14.700Z,18.44
2018-07-12T00:22:42.595Z,18.44
2018-07-12T00:25:10.312Z,18.44
2018-07-12T00:27:38.109Z,18.41
2018-07-12T00:30:05.849Z,18.40
2018-07-12T00:32:33.607Z,18.41
2018-07-12T00:35:01.364Z,18.41
2018-07-12T00:37:29.102Z,18.40
2018-07-12T00:39:56.863Z,18.40
2018-07-12T00:42:24.639Z,18.40
2018-07-12T00:44:52.408Z,18.41
2018-07-12T00:47:20.143Z,18.39
2018-07-12T00:49:47.959Z,18.40
2018-07-12T00:52:15.857Z,18.39
2018-07-12T00:54:43.950Z,18.36
2018-07-12T00:57:12.654Z,18.31
2018-07-12T00:59:40.836Z,18.28
2018-07-12T01:02:08.610Z,18.29
2018-07-12T01:04:36.754Z,18.30
2018-07-12T01:07:04.746Z,18.32
2018-07-12T01:09:32.481Z,18.31
2018-07-12T01:12:00.741Z,18.32
2018-07-12T01:14:28.516Z,18.34
2018-07-12T01:16:56.241Z,18.32
2018-07-12T01:19:24.046Z,18.33
2018-07-12T01:21:51.820Z,18.32
2018-07-12T01:24:19.573Z,18.33
2018-07-12T01:26:47.346Z,18.32
2018-07-12T01:29:15.125Z,18.27
2018-07-12T01:31:42.897Z,18.27
2018-07-12T01:34:10.644Z,18.26
2018-07-12T01:36:38.403Z,18.22
2018-07-12T01:39:06.873Z,18.25
2018-07-12T01:41:34.616Z,18.23
2018-07-12T01:44:02.406Z,18.23
2018-07-12T01:46:30.142Z,18.21
2018-07-12T01:48:57.936Z,18.17
2018-07-12T01:51:25.686Z,18.18
2018-07-12T01:53:53.427Z,18.21
2018-07-12T01:56:21.185Z,18.25
2018-07-12T01:58:49.812Z,18.24
2018-07-12T02:01:17.637Z,18.19
2018-07-12T02:03:45.392Z,18.17
2018-07-12T02:06:14.045Z,18.20
2018-07-12T02:08:41.816Z,18.23
2018-07-12T02:11:09.544Z,18.21
2018-07-12T02:13:37.313Z,18.19
2018-07-12T02:16:05.076Z,18.18
2018-07-12T02:18:32.813Z,18.20
2018-07-12T02:21:00.549Z,18.21
2018-07-12T02:23:28.293Z,18.19
2018-07-12T02:25:56.067Z,18.22
2018-07-12T02:28:23.816Z,18.16
2018-07-12T02:30:51.588Z,18.14
2018-07-12T02:33:19.323Z,18.20
2018-07-12T02:35:47.075Z,18.22
2018-07-12T02:38:14.859Z,18.24
2018-07-12T02:40:42.587Z,18.23
2018-07-12T02:43:10.376Z,18.25
2018-07-12T02:45:38.095Z,18.24
2018-07-12T02:48:05.845Z,18.27
2018-07-12T02:50:33.617Z,18.28
2018-07-12T02:53:01.354Z,18.27
2018-07-12T02:55:29.144Z,18.28
2018-07-12T02:57:56.910Z,18.26
2018-07-12T03:00:24.666Z,18.24
2018-07-12T03:02:52.424Z,18.25
2018-07-12T03:05:20.164Z,18.21
2018-07-12T03:07:47.939Z,18.18
2018-07-12T03:10:15.699Z,18.19
2018-07-12T03:12:43.480Z,18.18
2018-07-12T03:15:11.244Z,18.18
2018-07-12T03:17:39.001Z,18.16
2018-07-12T03:20:06.781Z,18.18
2018-07-12T03:22:34.542Z,18.19
2018-07-12T03:25:02.303Z,18.21
2018-07-12T03:27:30.081Z,18.24
2018-07-12T03:29:57.831Z,18.25
2018-07-12T03:32:25.583Z,18.24
2018-07-12T03:34:53.348Z,18.25
2018-07-12T03:37:21.143Z,18.25
2018-07-12T03:39:48.863Z,18.25
2018-07-12T03:42:16.648Z,18.27
2018-07-12T03:44:44.417Z,18.26
2018-07-12T03:47:12.176Z,18.24
2018-07-12T03:49:39.918Z,18.26
2018-07-12T03:52:07.640Z,18.25
2018-07-12T03:54:35.414Z,18.26
2018-07-12T03:57:03.159Z,18.26
2018-07-12T03:59:30.931Z,18.26
2018-07-12T04:01:58.646Z,18.27
2018-07-12T04:04:26.388Z,18.26
2018-07-12T04:06:54.324Z,18.28
2018-07-12T04:09:22.080Z,18.25
2018-07-12T04:11:49.853Z,18.25
2018-07-12T04:14:17.611Z,18.27
2018-07-12T04:16:45.432Z,18.28
2018-07-12T04:19:13.172Z,18.30
2018-07-12T04:21:40.907Z,18.31
2018-07-12T04:24:08.687Z,18.27
2018-07-12T04:26:36.432Z,18.26
2018-07-12T04:29:04.227Z,18.29
2018-07-12T04:31:31.967Z,18.28
2018-07-12T04:33:59.707Z,18.27
2018-07-12T04:36:27.472Z,18.26
2018-07-12T04:38:55.233Z,18.24
2018-07-12T04:41:23.002Z,18.19
2018-07-12T04:43:51.021Z,18.18
2018-07-12T04:46:18.790Z,18.18
2018-07-12T04:48:46.587Z,18.16
2018-07-12T04:51:14.353Z,18.12
2018-07-12T04:53:42.108Z,18.10
2018-07-12T04:56:09.837Z,18.11
2018-07-12T04:58:37.594Z,18.10
2018-07-12T05:01:05.378Z,18.06
2018-07-12T05:03:33.129Z,18.03
2018-07-12T05:06:00.897Z,18.04
2018-07-12T05:08:28.656Z,18.05
2018-07-12T05:10:56.412Z,18.04
2018-07-12T05:13:24.185Z,18.06
2018-07-12T05:15:51.946Z,18.06
2018-07-12T05:18:19.735Z,18.02
2018-07-12T05:20:47.537Z,17.98
2018-07-12T05:23:16.421Z,18.03
2018-07-12T05:25:44.178Z,18.08
2018-07-12T05:28:11.946Z,18.14
2018-07-12T05:30:39.678Z,18.19
2018-07-12T05:33:07.709Z,18.20
2018-07-12T05:35:37.146Z,18.26
2018-07-12T05:38:06.641Z,18.32
2018-07-12T05:40:36.065Z,18.33
2018-07-12T05:43:06.617Z,18.39
2018-07-12T05:45:36.047Z,18.42
2018-07-12T05:48:05.805Z,18.46
2018-07-12T05:50:35.750Z,18.48
2018-07-12T05:53:05.291Z,18.53
2018-07-12T05:55:34.752Z,18.54
2018-07-12T05:58:04.229Z,18.56
2018-07-12T06:00:33.658Z,18.58
2018-07-12T06:03:03.070Z,18.63
2018-07-12T06:05:32.685Z,18.61
2018-07-12T06:08:02.118Z,18.51
2018-07-12T06:10:31.630Z,18.54
2018-07-12T06:13:01.035Z,18.55
2018-07-12T06:15:30.521Z,18.53
2018-07-12T06:18:00.017Z,18.52
2018-07-12T06:20:29.519Z,18.55
2018-07-12T06:22:58.965Z,18.58
2018-07-12T06:25:28.367Z,18.60
2018-07-12T06:27:57.750Z,18.65
2018-07-12T06:30:27.181Z,18.68
2018-07-12T06:32:56.590Z,18.68
2018-07-12T06:35:26.001Z,18.78
2018-07-12T06:37:55.397Z,18.84
2018-07-12T06:40:24.839Z,18.85
2018-07-12T06:42:54.498Z,18.87
2018-07-12T06:45:23.660Z,18.91
2018-07-12T06:47:52.890Z,18.90
2018-07-12T06:50:22.281Z,18.86
2018-07-12T06:52:51.803Z,18.77
2018-07-12T06:55:21.298Z,18.64
2018-07-12T06:57:50.772Z,18.69
2018-07-12T07:00:19.904Z,18.71
2018-07-12T07:02:49.323Z,18.74
2018-07-12T07:05:18.792Z,18.71
2018-07-12T07:07:48.203Z,18.72
2018-07-12T07:10:17.624Z,18.70
2018-07-12T07:12:47.128Z,18.75
2018-07-12T07:15:16.602Z,18.76
2018-07-12T07:17:46.042Z,18.84
2018-07-12T07:20:15.826Z,18.91
2018-07-12T07:22:45.232Z,18.96
2018-07-12T07:25:14.638Z,19.00
2018-07-12T07:27:43.770Z,19.04
2018-07-12T07:30:13.175Z,19.01
2018-07-12T07:32:43.140Z,19.02
2018-07-12T07:35:12.858Z,19.03
2018-07-12T07:37:43.350Z,19.08
2018-07-12T07:40:12.799Z,19.12
2018-07-12T07:42:42.250Z,19.16
2018-07-12T07:45:11.650Z,19.14
2018-07-12T07:47:41.075Z,19.24
2018-07-12T07:50:10.501Z,19.28
2018-07-12T07:52:39.959Z,19.29
2018-07-12T07:55:09.448Z,19.32
2018-07-12T07:57:38.904Z,19.30
2018-07-12T08:00:09.572Z,19.31
2018-07-12T08:02:38.987Z,19.36
2018-07-12T08:05:08.400Z,19.40
2018-07-12T08:07:37.841Z,19.44
2018-07-12T08:10:07.330Z,19.47
2018-07-12T08:12:36.858Z,19.48
2018-07-12T08:15:06.930Z,19.53
2018-07-12T08:17:36.892Z,19.62
2018-07-12T08:20:06.482Z,19.66
2018-07-12T08:22:35.880Z,19.71
2018-07-12T08:25:05.406Z,19.74
2018-07-12T08:27:34.810Z,19.75
2018-07-12T08:30:04.503Z,19.78
2018-07-12T08:32:33.820Z,19.82
2018-07-12T08:35:03.259Z,19.85
2018-07-12T08:37:32.705Z,19.83
2018-07-12T08:40:02.115Z,19.98
2018-07-12T08:42:31.681Z,19.97
2018-07-12T08:45:01.215Z,19.94
2018-07-12T08:47:30.623Z,20.07
2018-07-12T08:50:00.583Z,20.21
2018-07-12T08:52:30.026Z,20.32
2018-07-12T08:54:59.390Z,20.28
2018-07-12T08:57:28.999Z,20.38
2018-07-12T08:59:58.626Z,20.39
2018-07-12T09:02:28.212Z,20.37
2018-07-12T09:04:57.694Z,20.42
2018-07-12T09:07:27.160Z,20.47
2018-07-12T09:09:56.554Z,20.46
2018-07-12T09:12:26.027Z,20.44
2018-07-12T09:14:55.470Z,20.51
2018-07-12T09:17:24.956Z,20.50
2018-07-12T09:19:54.386Z,20.52
2018-07-12T09:22:23.870Z,20.61
2018-07-12T09:24:53.290Z,20.62
2018-07-12T09:27:22.662Z,20.63
2018-07-12T09:29:52.142Z,20.65
2018-07-12T09:32:21.590Z,20.68
2018-07-12T09:34:51.074Z,20.74
2018-07-12T09:37:20.496Z,20.79
2018-07-12T09:39:50.019Z,20.79
2018-07-12T09:42:19.436Z,20.82
2018-07-12T09:44:48.565Z,20.78
2018-07-12T09:47:18.050Z,20.75
2018-07-12T09:49:47.463Z,20.68
2018-07-12T09:52:22.109Z,20.78
2018-07-12T09:54:51.585Z,20.74
2018-07-12T09:57:37.903Z,20.70
2018-07-12T10:00:07.470Z,20.72
2018-07-12T10:02:42.002Z,20.77
2018-07-12T10:07:18.103Z,20.83
2018-07-12T10:09:52.652Z,20.97
2018-07-12T10:12:27.285Z,21.01
2018-07-12T10:15:03.388Z,21.10
2018-07-12T10:17:41.855Z,21.18
2018-07-12T10:20:11.323Z,21.15
2018-07-12T10:22:40.724Z,21.29
2018-07-12T10:25:10.207Z,21.36
2018-07-12T10:27:39.655Z,21.40
2018-07-12T10:30:09.125Z,21.54
2018-07-12T10:32:38.564Z,21.62
2018-07-12T10:35:07.970Z,21.64
2018-07-12T10:37:37.380Z,21.58
2018-07-12T10:40:06.921Z,21.65
2018-07-12T10:42:36.400Z,21.75
2018-07-12T10:45:05.989Z,21.76
2018-07-12T10:47:35.456Z,21.79
2018-07-12T10:50:04.982Z,21.86
2018-07-12T10:52:34.396Z,21.88
2018-07-12T10:55:03.892Z,21.95
2018-07-12T10:57:33.323Z,22.03
2018-07-12T11:00:02.814Z,21.88
2018-07-12T11:02:31.973Z,21.97
2018-07-12T11:05:01.396Z,21.97
2018-07-12T11:07:30.757Z,21.96
2018-07-12T11:10:00.216Z,21.88
2018-07-12T11:12:29.643Z,21.96
2018-07-12T11:14:59.052Z,21.95
2018-07-12T11:17:28.467Z,21.94
2018-07-12T11:19:57.954Z,21.97
2018-07-12T11:22:27.368Z,22.02
2018-07-12T11:24:56.808Z,21.99
2018-07-12T11:27:27.026Z,22.04
2018-07-12T11:29:58.727Z,21.99
2018-07-12T11:32:28.180Z,22.08
2018-07-12T11:34:57.592Z,22.18
2018-07-12T11:37:28.175Z,22.22
2018-07-12T11:39:57.284Z,22.11
2018-07-12T11:42:26.782Z,22.20
2018-07-12T11:44:55.903Z,22.21
2018-07-12T11:47:25.384Z,22.32
2018-07-12T11:49:54.532Z,22.38
2018-07-12T11:52:23.924Z,22.33
2018-07-12T11:54:53.346Z,22.43
2018-07-12T11:57:22.792Z,22.44
2018-07-12T11:59:52.279Z,22.55
2018-07-12T12:02:21.747Z,22.65
2018-07-12T12:04:51.200Z,22.72
2018-07-12T12:07:20.671Z,22.80
2018-07-12T12:09:50.105Z,22.87
2018-07-12T12:12:19.556Z,22.89
2018-07-12T12:14:49.060Z,22.96
2018-07-12T12:17:18.496Z,22.94
2018-07-12T12:19:48.076Z,22.93
2018-07-12T12:22:17.486Z,22.97
2018-07-12T12:24:46.963Z,23.04
2018-07-12T12:27:16.397Z,23.05
2018-07-12T12:29:45.830Z,23.07
2018-07-12T12:32:15.270Z,23.11
2018-07-12T12:34:44.389Z,23.12
2018-07-12T12:37:13.878Z,23.13
2018-07-12T12:39:43.019Z,23.11
2018-07-12T12:42:13.059Z,23.09
2018-07-12T12:44:42.509Z,23.18
2018-07-12T12:47:11.938Z,23.32
2018-07-12T12:49:41.397Z,23.42
2018-07-12T12:52:10.873Z,23.50
2018-07-12T12:54:40.311Z,23.44
2018-07-12T12:57:09.844Z,23.48
2018-07-12T12:59:39.254Z,23.51
2018-07-12T13:02:08.745Z,23.52
2018-07-12T13:04:38.196Z,23.68
2018-07-12T13:07:07.680Z,23.66
2018-07-12T13:09:37.183Z,23.72
2018-07-12T13:12:06.629Z,23.69
2018-07-12T13:14:36.024Z,23.79
2018-07-12T13:17:05.589Z,23.82
2018-07-12T13:19:35.113Z,23.78
2018-07-12T13:22:04.575Z,23.77
2018-07-12T13:24:34.034Z,23.72
2018-07-12T13:27:03.512Z,23.71
2018-07-12T13:29:32.943Z,23.73
2018-07-12T13:32:02.488Z,23.77
2018-07-12T13:34:31.836Z,23.89
2018-07-12T13:37:01.258Z,23.90
2018-07-12T13:39:30.749Z,24.02
2018-07-12T13:42:00.164Z,24.08
2018-07-12T13:44:29.612Z,24.00
2018-07-12T13:46:59.077Z,24.19
2018-07-12T13:49:28.490Z,24.20
2018-07-12T13:51:58.004Z,24.00
2018-07-12T13:54:27.443Z,24.01
2018-07-12T13:56:56.895Z,24.06
2018-07-12T13:59:26.373Z,24.05
2018-07-12T14:01:55.827Z,24.02
2018-07-12T14:04:25.278Z,24.01
2018-07-12T14:06:54.697Z,24.03
2018-07-12T14:09:24.163Z,23.97
2018-07-12T14:11:53.583Z,24.06
2018-07-12T14:14:22.967Z,24.05
2018-07-12T14:16:52.400Z,24.00
2018-07-12T14:19:21.605Z,23.96
2018-07-12T14:21:51.272Z,24.04
2018-07-12T14:24:20.716Z,24.07
2018-07-12T14:26:50.179Z,24.18
2018-07-12T14:29:19.643Z,24.21
2018-07-12T14:31:49.053Z,24.16
2018-07-12T14:34:18.452Z,24.09
2018-07-12T14:36:47.904Z,24.08
2018-07-12T14:39:17.045Z,23.98
2018-07-12T14:41:46.495Z,23.99
2018-07-12T14:44:15.969Z,24.04
2018-07-12T14:46:45.335Z,24.09
2018-07-12T14:49:14.788Z,24.18
2018-07-12T14:51:44.268Z,24.27
2018-07-12T14:54:13.732Z,24.38
2018-07-12T14:56:43.184Z,24.48
2018-07-12T14:59:12.752Z,24.57
2018-07-12T15:01:42.275Z,24.57
2018-07-12T15:04:11.814Z,24.65
2018-07-12T15:06:41.365Z,24.83
2018-07-12T15:09:10.953Z,24.97
2018-07-12T15:11:40.232Z,25.18
2018-07-12T15:14:09.657Z,25.25
2018-07-12T15:16:39.096Z,25.48
2018-07-12T15:19:08.567Z,25.63
2018-07-12T15:21:38.058Z,25.75
2018-07-12T15:24:07.495Z,25.98
2018-07-12T15:26:36.894Z,25.98
2018-07-12T15:29:06.350Z,26.03
2018-07-12T15:31:35.933Z,26.10
2018-07-12T15:34:05.251Z,26.22
2018-07-12T15:36:34.725Z,26.25
2018-07-12T15:39:05.404Z,26.27
2018-07-12T15:41:34.848Z,26.35
2018-07-12T15:44:04.382Z,26.53
2018-07-12T15:46:34.140Z,26.67
2018-07-12T15:49:03.703Z,26.72
2018-07-12T15:51:33.136Z,26.87
2018-07-12T15:54:02.651Z,27.07
2018-07-12T15:56:32.135Z,27.29
2018-07-12T15:59:01.570Z,27.54
2018-07-12T16:01:31.050Z,27.52
2018-07-12T16:04:00.508Z,27.36
2018-07-12T16:06:30.093Z,27.18
2018-07-12T16:08:59.530Z,27.15
2018-07-12T16:11:29.535Z,27.11
2018-07-12T16:13:58.974Z,27.11
2018-07-12T16:16:28.233Z,26.96
2018-07-12T16:18:57.698Z,26.91
2018-07-12T16:21:27.216Z,26.87
2018-07-12T16:23:56.647Z,26.83
2018-07-12T16:26:26.129Z,26.79
2018-07-12T16:28:55.564Z,26.75
2018-07-12T16:31:25.173Z,26.71
2018-07-12T16:33:54.722Z,26.73
2018-07-12T16:36:24.127Z,26.73
2018-07-12T16:38:53.686Z,26.72
2018-07-12T16:41:23.108Z,26.56
2018-07-12T16:43:52.499Z,26.68
2018-07-12T16:46:22.590Z,26.81
2018-07-12T16:48:52.007Z,26.70
2018-07-12T16:51:21.423Z,26.91
2018-07-12T16:53:50.913Z,26.89
2018-07-12T16:56:20.359Z,27.05
2018-07-12T16:58:50.486Z,27.00
2018-07-12T17:01:20.438Z,27.08
2018-07-12T17:03:49.851Z,27.22
2018-07-12T17:06:18.999Z,27.33
2018-07-12T17:08:48.976Z,27.41
2018-07-12T17:11:18.109Z,27.47
2018-07-12T17:13:47.569Z,27.71
2018-07-12T17:16:16.675Z,27.76
2018-07-12T17:18:46.190Z,27.94
2018-07-12T17:21:15.634Z,28.12
2018-07-12T17:23:45.115Z,28.28
2018-07-12T17:26:14.233Z,28.24
2018-07-12T17:28:43.732Z,28.32
2018-07-12T17:31:13.141Z,28.11
2018-07-12T17:33:42.561Z,27.85
2018-07-12T17:36:12.036Z,27.60
2018-07-12T17:38:41.496Z,27.49
2018-07-12T17:41:11.196Z,27.22
2018-07-12T17:43:40.651Z,26.97
2018-07-12T17:46:10.168Z,26.80
2018-07-12T17:48:39.566Z,26.64
2018-07-12T17:51:09.003Z,26.45
2018-07-12T17:53:38.517Z,26.35
2018-07-12T17:56:08.089Z,26.21
2018-07-12T17:58:37.495Z,26.04
2018-07-12T18:01:07.349Z,25.97
2018-07-12T18:03:36.916Z,25.93
2018-07-12T18:06:06.803Z,25.73
2018-07-12T18:08:36.338Z,25.65
2018-07-12T18:11:05.886Z,25.52
2018-07-12T18:13:35.438Z,25.31
2018-07-12T18:16:06.088Z,25.30
2018-07-12T18:18:35.707Z,25.23
2018-07-12T18:21:07.957Z,25.01
2018-07-12T18:23:39.002Z,24.99
2018-07-12T18:26:10.186Z,24.91
2018-07-12T18:28:39.525Z,24.87
2018-07-12T18:31:09.182Z,24.81
2018-07-12T18:33:38.570Z,24.70
2018-07-12T18:36:08.045Z,24.66
2018-07-12T18:38:37.178Z,24.48
2018-07-12T18:41:06.671Z,24.40
2018-07-12T18:43:37.059Z,24.37
2018-07-12T18:46:06.726Z,24.29
2018-07-12T18:48:36.667Z,24.17
2018-07-12T18:51:07.032Z,24.00
2018-07-12T18:53:36.432Z,23.70
2018-07-12T18:56:05.923Z,23.54
2018-07-12T18:58:35.422Z,23.52
2018-07-12T19:01:04.886Z,23.45
2018-07-12T19:03:34.406Z,23.36
2018-07-12T19:06:04.045Z,23.33
2018-07-12T19:08:33.538Z,23.27
2018-07-12T19:11:03.024Z,23.14
2018-07-12T19:13:32.493Z,23.05
2018-07-12T19:16:01.645Z,22.96
2018-07-12T19:18:30.820Z,22.89
2018-07-12T19:21:00.297Z,22.85
2018-07-12T19:23:29.801Z,22.80
2018-07-12T19:25:59.214Z,22.69
2018-07-12T19:28:28.699Z,22.59
2018-07-12T19:30:58.132Z,22.59
2018-07-12T19:33:27.598Z,22.50
2018-07-12T19:35:57.070Z,22.45
2018-07-12T19:38:27.091Z,22.41
2018-07-12T19:40:56.545Z,22.32
2018-07-12T19:43:26.006Z,22.18
2018-07-12T19:45:55.422Z,22.07
2018-07-12T19:48:24.531Z,21.95
2018-07-12T19:50:54.056Z,21.95
2018-07-12T19:53:23.600Z,21.94
2018-07-12T19:55:53.091Z,21.78
2018-07-12T19:58:22.663Z,21.76
2018-07-12T20:00:52.123Z,21.69
2018-07-12T20:03:21.645Z,21.69
2018-07-12T20:05:51.286Z,21.60
2018-07-12T20:08:20.687Z,21.55
2018-07-12T20:10:50.168Z,21.48
2018-07-12T20:13:19.695Z,21.44
2018-07-12T20:15:49.188Z,21.40
2018-07-12T20:18:18.741Z,21.31
2018-07-12T20:20:48.278Z,21.27
2018-07-12T20:23:17.748Z,21.19
2018-07-12T20:25:47.275Z,21.06
2018-07-12T20:28:16.715Z,20.97
2018-07-12T20:30:46.260Z,20.95
2018-07-12T20:33:15.763Z,20.91
2018-07-12T20:35:45.130Z,20.86
2018-07-12T20:38:14.622Z,20.81
2018-07-12T20:40:44.091Z,20.80
2018-07-12T20:43:19.170Z,20.81
2018-07-12T20:45:49.138Z,20.72
2018-07-12T20:48:18.544Z,20.71
2018-07-12T20:50:47.987Z,20.64
2018-07-12T20:53:17.482Z,20.53
2018-07-12T20:55:46.840Z,20.49
2018-07-12T20:58:16.283Z,20.51
2018-07-12T21:00:45.762Z,20.49
2018-07-12T21:03:15.174Z,20.50
2018-07-12T21:05:44.678Z,20.42
2018-07-12T21:08:14.113Z,20.34
2018-07-12T21:10:43.517Z,20.29
2018-07-12T21:13:12.938Z,20.27
2018-07-12T21:15:42.377Z,20.21
2018-07-12T21:18:11.890Z,20.16
2018-07-12T21:20:41.309Z,20.13
2018-07-12T21:23:10.727Z,20.07
2018-07-12T21:25:40.201Z,19.99
2018-07-12T21:28:09.601Z,19.94
2018-07-12T21:30:39.048Z,19.97
2018-07-12T21:33:08.507Z,19.87
2018-07-12T21:35:37.958Z,19.87
2018-07-12T21:38:07.430Z,19.82
2018-07-12T21:40:36.840Z,19.70
2018-07-12T21:43:06.368Z,19.66
2018-07-12T21:45:35.825Z,19.63
2018-07-12T21:48:05.269Z,19.62
2018-07-12T21:50:34.692Z,19.54
2018-07-12T21:53:04.114Z,19.49
2018-07-12T21:55:33.648Z,19.45
2018-07-12T21:58:03.058Z,19.32
2018-07-12T22:00:33.356Z,19.29
2018-07-12T22:03:02.889Z,19.25
2018-07-12T22:05:32.425Z,19.19
2018-07-12T22:08:17.768Z,19.19
2018-07-12T22:10:48.219Z,19.15
2018-07-12T22:13:18.196Z,19.10
2018-07-12T22:15:47.653Z,19.07
2018-07-12T22:18:17.138Z,19.09
2018-07-12T22:20:46.568Z,19.08
2018-07-12T22:23:15.988Z,19.09
2018-07-12T22:25:45.440Z,19.08
2018-07-12T22:28:14.869Z,19.09
2018-07-12T22:30:44.345Z,19.06
2018-07-12T22:33:13.782Z,19.04
2018-07-12T22:35:43.283Z,18.97
2018-07-12T22:38:12.775Z,18.91
2018-07-12T22:40:42.258Z,18.85
2018-07-12T22:43:11.658Z,18.79
2018-07-12T22:45:41.081Z,18.81
2018-07-12T22:48:10.580Z,18.81
2018-07-12T22:50:39.932Z,18.82
2018-07-12T22:53:09.373Z,18.77
2018-07-12T22:55:38.804Z,18.71
2018-07-12T22:58:08.283Z,18.64
2018-07-12T23:00:37.776Z,18.55
2018-07-12T23:03:07.151Z,18.45
2018-07-12T23:05:36.553Z,18.42
2018-07-12T23:08:05.930Z,18.41
2018-07-12T23:10:35.357Z,18.37
2018-07-12T23:13:04.797Z,18.34
2018-07-12T23:15:34.229Z,18.27
2018-07-12T23:18:03.653Z,18.23
2018-07-12T23:20:33.063Z,18.26
2018-07-12T23:23:02.505Z,18.32
2018-07-12T23:25:31.998Z,18.32
2018-07-12T23:28:01.394Z,18.25
2018-07-12T23:30:30.839Z,18.24
2018-07-12T23:33:00.247Z,18.14
2018-07-12T23:35:29.657Z,18.02
2018-07-12T23:37:59.099Z,17.96
2018-07-12T23:40:28.520Z,18.00
2018-07-12T23:42:57.978Z,17.93
2018-07-12T23:45:27.420Z,17.89
2018-07-12T23:47:56.801Z,17.86
2018-07-12T23:50:26.204Z,17.80
2018-07-12T23:52:55.594Z,17.76
2018-07-12T23:55:24.998Z,17.69
2018-07-12T23:57:54.436Z,17.63
